sensor_id;sensor_type;location;lat;lon;timestamp;P1;durP1;ratioP1;P2;durP2;ratioP2
69716;SDS011;65362;46.144;19.666;2022-12-10T00:01:34;6.97;;;5.40;;
69716;SDS011;65362;46.144;19.666;2022-12-10T00:04:03;6.60;;;5.07;;
69716;SDS011;65362;46.144;19.666;2022-12-10T00:06:32;6.72;;;5.20;;
69716;SDS011;65362;46.144;19.666;2022-12-10T00:09:01;8.30;;;5.68;;
69716;SDS011;65362;46.144;19.666;2022-12-10T00:11:31;5.60;;;4.97;;
69716;SDS011;65362;46.144;19.666;2022-12-10T00:13:58;5.95;;;5.25;;
69716;SDS011;65362;46.144;19.666;2022-12-10T00:16:27;5.82;;;5.22;;
69716;SDS011;65362;46.144;19.666;2022-12-10T00:18:55;5.65;;;4.75;;
69716;SDS011;65362;46.144;19.666;2022-12-10T00:21:25;6.05;;;5.00;;
69716;SDS011;65362;46.144;19.666;2022-12-10T00:23:55;6.10;;;4.95;;
69716;SDS011;65362;46.144;19.666;2022-12-10T00:26:33;6.35;;;5.07;;
69716;SDS011;65362;46.144;19.666;2022-12-10T00:29:03;5.93;;;5.25;;
69716;SDS011;65362;46.144;19.666;2022-12-10T00:31:34;5.90;;;5.07;;
69716;SDS011;65362;46.144;19.666;2022-12-10T00:34:04;7.10;;;5.40;;
69716;SDS011;65362;46.144;19.666;2022-12-10T00:36:34;5.63;;;4.93;;
69716;SDS011;65362;46.144;19.666;2022-12-10T00:39:04;6.38;;;4.78;;
69716;SDS011;65362;46.144;19.666;2022-12-10T00:41:33;6.65;;;4.75;;
69716;SDS011;65362;46.144;19.666;2022-12-10T00:44:00;5.38;;;4.60;;
69716;SDS011;65362;46.144;19.666;2022-12-10T00:46:28;5.88;;;4.85;;
69716;SDS011;65362;46.144;19.666;2022-12-10T00:48:57;6.40;;;5.13;;
69716;SDS011;65362;46.144;19.666;2022-12-10T00:51:26;6.00;;;4.93;;
69716;SDS011;65362;46.144;19.666;2022-12-10T00:53:56;7.53;;;5.07;;
69716;SDS011;65362;46.144;19.666;2022-12-10T00:56:26;5.05;;;4.45;;
69716;SDS011;65362;46.144;19.666;2022-12-10T00:58:55;6.70;;;5.18;;
69716;SDS011;65362;46.144;19.666;2022-12-10T01:01:24;5.53;;;4.65;;
69716;SDS011;65362;46.144;19.666;2022-12-10T01:03:55;6.18;;;4.90;;
69716;SDS011;65362;46.144;19.666;2022-12-10T01:06:25;4.93;;;4.40;;
69716;SDS011;65362;46.144;19.666;2022-12-10T01:08:57;4.93;;;4.32;;
69716;SDS011;65362;46.144;19.666;2022-12-10T01:11:28;6.90;;;5.18;;
69716;SDS011;65362;46.144;19.666;2022-12-10T01:13:57;7.55;;;5.20;;
69716;SDS011;65362;46.144;19.666;2022-12-10T01:16:25;5.00;;;4.50;;
69716;SDS011;65362;46.144;19.666;2022-12-10T01:18:54;6.97;;;5.20;;
69716;SDS011;65362;46.144;19.666;2022-12-10T01:21:23;5.22;;;4.50;;
69716;SDS011;65362;46.144;19.666;2022-12-10T01:23:52;5.68;;;3.97;;
69716;SDS011;65362;46.144;19.666;2022-12-10T01:26:21;4.97;;;4.45;;
69716;SDS011;65362;46.144;19.666;2022-12-10T01:28:56;6.47;;;4.47;;
69716;SDS011;65362;46.144;19.666;2022-12-10T01:31:28;5.18;;;4.38;;
69716;SDS011;65362;46.144;19.666;2022-12-10T01:33:58;5.80;;;4.75;;
69716;SDS011;65362;46.144;19.666;2022-12-10T01:36:30;5.47;;;4.60;;
69716;SDS011;65362;46.144;19.666;2022-12-10T01:39:00;5.30;;;4.45;;
69716;SDS011;65362;46.144;19.666;2022-12-10T01:41:31;6.05;;;4.47;;
69716;SDS011;65362;46.144;19.666;2022-12-10T01:46:40;5.88;;;4.50;;
69716;SDS011;65362;46.144;19.666;2022-12-10T01:49:11;4.75;;;4.22;;
69716;SDS011;65362;46.144;19.666;2022-12-10T01:51:42;5.65;;;4.47;;
69716;SDS011;65362;46.144;19.666;2022-12-10T01:54:12;5.28;;;4.30;;
69716;SDS011;65362;46.144;19.666;2022-12-10T01:56:43;5.00;;;4.40;;
69716;SDS011;65362;46.144;19.666;2022-12-10T01:59:13;5.50;;;4.45;;
69716;SDS011;65362;46.144;19.666;2022-12-10T02:06:59;5.50;;;4.53;;
69716;SDS011;65362;46.144;19.666;2022-12-10T02:09:38;5.63;;;4.45;;
69716;SDS011;65362;46.144;19.666;2022-12-10T02:12:12;4.70;;;4.20;;
69716;SDS011;65362;46.144;19.666;2022-12-10T02:14:53;5.22;;;4.22;;
69716;SDS011;65362;46.144;19.666;2022-12-10T02:17:24;5.20;;;4.25;;
69716;SDS011;65362;46.144;19.666;2022-12-10T02:22:53;4.90;;;4.22;;
69716;SDS011;65362;46.144;19.666;2022-12-10T02:25:26;4.55;;;4.13;;
69716;SDS011;65362;46.144;19.666;2022-12-10T02:28:03;4.72;;;4.00;;
69716;SDS011;65362;46.144;19.666;2022-12-10T02:30:40;4.68;;;4.18;;
69716;SDS011;65362;46.144;19.666;2022-12-10T02:33:09;4.95;;;4.20;;
69716;SDS011;65362;46.144;19.666;2022-12-10T02:35:38;5.55;;;4.10;;
69716;SDS011;65362;46.144;19.666;2022-12-10T02:38:10;4.78;;;4.25;;
69716;SDS011;65362;46.144;19.666;2022-12-10T02:40:45;4.25;;;3.85;;
69716;SDS011;65362;46.144;19.666;2022-12-10T02:43:17;5.65;;;3.97;;
69716;SDS011;65362;46.144;19.666;2022-12-10T02:45:45;4.35;;;3.95;;
69716;SDS011;65362;46.144;19.666;2022-12-10T02:48:14;4.85;;;4.28;;
69716;SDS011;65362;46.144;19.666;2022-12-10T02:50:43;5.15;;;4.28;;
69716;SDS011;65362;46.144;19.666;2022-12-10T02:53:10;5.70;;;4.25;;
69716;SDS011;65362;46.144;19.666;2022-12-10T03:04:01;4.68;;;4.22;;
69716;SDS011;65362;46.144;19.666;2022-12-10T03:06:38;4.03;;;3.63;;
69716;SDS011;65362;46.144;19.666;2022-12-10T03:09:34;4.25;;;3.83;;
69716;SDS011;65362;46.144;19.666;2022-12-10T03:12:19;4.95;;;3.67;;
69716;SDS011;65362;46.144;19.666;2022-12-10T03:14:52;4.97;;;3.83;;
69716;SDS011;65362;46.144;19.666;2022-12-10T03:17:27;4.97;;;4.45;;
69716;SDS011;65362;46.144;19.666;2022-12-10T03:19:57;4.85;;;4.05;;
69716;SDS011;65362;46.144;19.666;2022-12-10T03:22:27;4.40;;;3.70;;
69716;SDS011;65362;46.144;19.666;2022-12-10T03:24:56;5.13;;;4.15;;
69716;SDS011;65362;46.144;19.666;2022-12-10T03:27:25;4.68;;;4.07;;
69716;SDS011;65362;46.144;19.666;2022-12-10T03:29:56;5.22;;;4.13;;
69716;SDS011;65362;46.144;19.666;2022-12-10T03:32:27;4.35;;;3.58;;
69716;SDS011;65362;46.144;19.666;2022-12-10T03:34:56;4.53;;;3.88;;
69716;SDS011;65362;46.144;19.666;2022-12-10T03:37:26;5.80;;;4.20;;
69716;SDS011;65362;46.144;19.666;2022-12-10T03:39:56;4.68;;;4.00;;
69716;SDS011;65362;46.144;19.666;2022-12-10T03:42:24;4.70;;;3.67;;
69716;SDS011;65362;46.144;19.666;2022-12-10T03:44:51;4.82;;;3.60;;
69716;SDS011;65362;46.144;19.666;2022-12-10T03:47:19;4.13;;;3.60;;
69716;SDS011;65362;46.144;19.666;2022-12-10T03:49:47;4.68;;;3.92;;
69716;SDS011;65362;46.144;19.666;2022-12-10T03:52:15;4.03;;;3.63;;
69716;SDS011;65362;46.144;19.666;2022-12-10T03:54:42;4.07;;;3.53;;
69716;SDS011;65362;46.144;19.666;2022-12-10T03:57:10;3.83;;;3.38;;
69716;SDS011;65362;46.144;19.666;2022-12-10T03:59:37;4.03;;;3.63;;
69716;SDS011;65362;46.144;19.666;2022-12-10T04:02:05;4.13;;;3.67;;
69716;SDS011;65362;46.144;19.666;2022-12-10T04:04:32;4.00;;;3.60;;
69716;SDS011;65362;46.144;19.666;2022-12-10T04:06:59;4.70;;;4.10;;
69716;SDS011;65362;46.144;19.666;2022-12-10T04:09:27;4.85;;;3.60;;
69716;SDS011;65362;46.144;19.666;2022-12-10T04:11:55;4.60;;;3.50;;
69716;SDS011;65362;46.144;19.666;2022-12-10T04:14:24;4.25;;;3.60;;
69716;SDS011;65362;46.144;19.666;2022-12-10T04:19:39;4.15;;;3.63;;
69716;SDS011;65362;46.144;19.666;2022-12-10T04:22:07;4.53;;;3.53;;
69716;SDS011;65362;46.144;19.666;2022-12-10T04:24:54;4.70;;;3.95;;
69716;SDS011;65362;46.144;19.666;2022-12-10T04:27:40;4.13;;;3.60;;
69716;SDS011;65362;46.144;19.666;2022-12-10T04:30:08;5.07;;;3.92;;
69716;SDS011;65362;46.144;19.666;2022-12-10T04:32:38;4.80;;;3.83;;
69716;SDS011;65362;46.144;19.666;2022-12-10T04:35:05;4.45;;;3.60;;
69716;SDS011;65362;46.144;19.666;2022-12-10T04:37:33;3.92;;;3.53;;
69716;SDS011;65362;46.144;19.666;2022-12-10T04:40:02;4.63;;;3.83;;
69716;SDS011;65362;46.144;19.666;2022-12-10T04:42:30;3.95;;;3.30;;
69716;SDS011;65362;46.144;19.666;2022-12-10T04:44:57;4.53;;;3.78;;
69716;SDS011;65362;46.144;19.666;2022-12-10T04:47:25;4.50;;;3.50;;
69716;SDS011;65362;46.144;19.666;2022-12-10T04:49:52;4.15;;;3.30;;
69716;SDS011;65362;46.144;19.666;2022-12-10T04:52:20;4.05;;;3.65;;
69716;SDS011;65362;46.144;19.666;2022-12-10T04:54:47;4.80;;;3.50;;
69716;SDS011;65362;46.144;19.666;2022-12-10T04:57:15;4.57;;;3.58;;
69716;SDS011;65362;46.144;19.666;2022-12-10T04:59:42;4.32;;;3.35;;
69716;SDS011;65362;46.144;19.666;2022-12-10T05:02:10;3.63;;;3.25;;
69716;SDS011;65362;46.144;19.666;2022-12-10T05:04:37;3.85;;;3.45;;
69716;SDS011;65362;46.144;19.666;2022-12-10T05:07:05;4.72;;;3.40;;
69716;SDS011;65362;46.144;19.666;2022-12-10T05:09:32;4.25;;;3.60;;
69716;SDS011;65362;46.144;19.666;2022-12-10T05:12:00;3.97;;;3.30;;
69716;SDS011;65362;46.144;19.666;2022-12-10T05:14:27;3.80;;;3.40;;
69716;SDS011;65362;46.144;19.666;2022-12-10T05:16:55;4.15;;;3.50;;
69716;SDS011;65362;46.144;19.666;2022-12-10T05:19:22;3.78;;;3.38;;
69716;SDS011;65362;46.144;19.666;2022-12-10T05:21:53;3.42;;;3.13;;
69716;SDS011;65362;46.144;19.666;2022-12-10T05:24:39;4.05;;;3.65;;
69716;SDS011;65362;46.144;19.666;2022-12-10T05:27:06;3.58;;;3.10;;
69716;SDS011;65362;46.144;19.666;2022-12-10T05:29:34;4.55;;;3.13;;
69716;SDS011;65362;46.144;19.666;2022-12-10T05:32:02;4.63;;;3.33;;
69716;SDS011;65362;46.144;19.666;2022-12-10T05:34:30;3.58;;;2.90;;
69716;SDS011;65362;46.144;19.666;2022-12-10T05:36:57;3.53;;;3.20;;
69716;SDS011;65362;46.144;19.666;2022-12-10T05:39:25;3.47;;;3.03;;
69716;SDS011;65362;46.144;19.666;2022-12-10T05:41:52;3.63;;;3.15;;
69716;SDS011;65362;46.144;19.666;2022-12-10T05:44:20;5.38;;;3.20;;
69716;SDS011;65362;46.144;19.666;2022-12-10T05:46:48;4.45;;;3.50;;
69716;SDS011;65362;46.144;19.666;2022-12-10T05:49:15;3.67;;;3.13;;
69716;SDS011;65362;46.144;19.666;2022-12-10T05:51:43;3.72;;;3.10;;
69716;SDS011;65362;46.144;19.666;2022-12-10T05:54:10;3.97;;;3.08;;
69716;SDS011;65362;46.144;19.666;2022-12-10T05:56:38;4.07;;;3.45;;
69716;SDS011;65362;46.144;19.666;2022-12-10T05:59:05;4.40;;;3.42;;
69716;SDS011;65362;46.144;19.666;2022-12-10T06:01:42;4.05;;;3.30;;
69716;SDS011;65362;46.144;19.666;2022-12-10T06:04:10;3.47;;;2.97;;
69716;SDS011;65362;46.144;19.666;2022-12-10T06:06:38;3.50;;;3.00;;
69716;SDS011;65362;46.144;19.666;2022-12-10T06:09:09;3.38;;;3.08;;
69716;SDS011;65362;46.144;19.666;2022-12-10T06:11:39;4.28;;;3.10;;
69716;SDS011;65362;46.144;19.666;2022-12-10T06:14:08;3.53;;;3.03;;
69716;SDS011;65362;46.144;19.666;2022-12-10T06:16:36;3.83;;;3.15;;
69716;SDS011;65362;46.144;19.666;2022-12-10T06:19:03;3.97;;;3.17;;
69716;SDS011;65362;46.144;19.666;2022-12-10T06:21:31;4.18;;;3.35;;
69716;SDS011;65362;46.144;19.666;2022-12-10T06:23:58;3.33;;;3.03;;
69716;SDS011;65362;46.144;19.666;2022-12-10T06:26:25;3.55;;;3.00;;
69716;SDS011;65362;46.144;19.666;2022-12-10T06:28:53;3.40;;;3.03;;
69716;SDS011;65362;46.144;19.666;2022-12-10T06:31:21;3.80;;;3.30;;
69716;SDS011;65362;46.144;19.666;2022-12-10T06:33:50;3.40;;;3.10;;
69716;SDS011;65362;46.144;19.666;2022-12-10T06:36:18;3.50;;;3.13;;
69716;SDS011;65362;46.144;19.666;2022-12-10T06:38:46;4.90;;;3.40;;
69716;SDS011;65362;46.144;19.666;2022-12-10T06:41:15;3.78;;;3.20;;
69716;SDS011;65362;46.144;19.666;2022-12-10T06:43:44;3.60;;;3.00;;
69716;SDS011;65362;46.144;19.666;2022-12-10T06:46:13;4.45;;;3.33;;
69716;SDS011;65362;46.144;19.666;2022-12-10T06:48:42;3.05;;;2.75;;
69716;SDS011;65362;46.144;19.666;2022-12-10T06:51:10;3.00;;;2.70;;
69716;SDS011;65362;46.144;19.666;2022-12-10T06:53:39;3.38;;;2.85;;
69716;SDS011;65362;46.144;19.666;2022-12-10T06:56:09;3.13;;;2.83;;
69716;SDS011;65362;46.144;19.666;2022-12-10T06:58:40;3.83;;;3.10;;
69716;SDS011;65362;46.144;19.666;2022-12-10T07:01:11;3.60;;;2.90;;
69716;SDS011;65362;46.144;19.666;2022-12-10T07:03:43;3.00;;;2.70;;
69716;SDS011;65362;46.144;19.666;2022-12-10T07:06:11;3.13;;;2.83;;
69716;SDS011;65362;46.144;19.666;2022-12-10T07:08:39;3.80;;;3.20;;
69716;SDS011;65362;46.144;19.666;2022-12-10T07:11:08;3.30;;;3.00;;
69716;SDS011;65362;46.144;19.666;2022-12-10T07:13:37;3.40;;;3.10;;
69716;SDS011;65362;46.144;19.666;2022-12-10T07:16:18;4.63;;;3.08;;
69716;SDS011;65362;46.144;19.666;2022-12-10T07:18:50;3.40;;;3.10;;
69716;SDS011;65362;46.144;19.666;2022-12-10T07:21:23;3.15;;;2.85;;
69716;SDS011;65362;46.144;19.666;2022-12-10T07:23:56;3.05;;;2.75;;
69716;SDS011;65362;46.144;19.666;2022-12-10T07:26:25;3.10;;;2.80;;
69716;SDS011;65362;46.144;19.666;2022-12-10T07:28:56;3.63;;;3.13;;
69716;SDS011;65362;46.144;19.666;2022-12-10T07:31:26;3.45;;;3.10;;
69716;SDS011;65362;46.144;19.666;2022-12-10T07:33:54;3.70;;;2.95;;
69716;SDS011;65362;46.144;19.666;2022-12-10T07:36:24;3.70;;;3.08;;
69716;SDS011;65362;46.144;19.666;2022-12-10T07:38:52;4.00;;;2.92;;
69716;SDS011;65362;46.144;19.666;2022-12-10T07:41:21;3.10;;;2.80;;
69716;SDS011;65362;46.144;19.666;2022-12-10T07:43:49;3.30;;;3.00;;
69716;SDS011;65362;46.144;19.666;2022-12-10T07:48:47;4.35;;;3.05;;
69716;SDS011;65362;46.144;19.666;2022-12-10T07:51:16;3.08;;;2.65;;
69716;SDS011;65362;46.144;19.666;2022-12-10T07:53:44;4.50;;;3.22;;
69716;SDS011;65362;46.144;19.666;2022-12-10T07:56:12;3.08;;;2.78;;
69716;SDS011;65362;46.144;19.666;2022-12-10T07:58:41;3.90;;;2.80;;
69716;SDS011;65362;46.144;19.666;2022-12-10T08:01:17;3.45;;;2.67;;
69716;SDS011;65362;46.144;19.666;2022-12-10T08:03:48;3.35;;;2.80;;
69716;SDS011;65362;46.144;19.666;2022-12-10T08:06:18;4.97;;;3.05;;
69716;SDS011;65362;46.144;19.666;2022-12-10T08:08:48;3.28;;;2.70;;
69716;SDS011;65362;46.144;19.666;2022-12-10T08:11:17;3.67;;;2.90;;
69716;SDS011;65362;46.144;19.666;2022-12-10T08:13:46;4.10;;;3.03;;
69716;SDS011;65362;46.144;19.666;2022-12-10T08:16:21;3.15;;;2.85;;
69716;SDS011;65362;46.144;19.666;2022-12-10T08:18:52;3.50;;;2.80;;
69716;SDS011;65362;46.144;19.666;2022-12-10T08:21:22;3.08;;;2.58;;
69716;SDS011;65362;46.144;19.666;2022-12-10T08:23:51;3.08;;;2.60;;
69716;SDS011;65362;46.144;19.666;2022-12-10T08:26:19;2.70;;;2.50;;
69716;SDS011;65362;46.144;19.666;2022-12-10T08:28:49;4.10;;;3.08;;
69716;SDS011;65362;46.144;19.666;2022-12-10T08:31:18;4.10;;;2.95;;
69716;SDS011;65362;46.144;19.666;2022-12-10T08:33:47;3.45;;;2.97;;
69716;SDS011;65362;46.144;19.666;2022-12-10T08:36:15;2.90;;;2.60;;
69716;SDS011;65362;46.144;19.666;2022-12-10T08:38:43;3.00;;;2.70;;
69716;SDS011;65362;46.144;19.666;2022-12-10T08:41:12;3.00;;;2.67;;
69716;SDS011;65362;46.144;19.666;2022-12-10T08:43:41;3.00;;;2.70;;
69716;SDS011;65362;46.144;19.666;2022-12-10T08:46:09;2.97;;;2.67;;
69716;SDS011;65362;46.144;19.666;2022-12-10T08:48:38;4.20;;;2.90;;
69716;SDS011;65362;46.144;19.666;2022-12-10T08:51:07;3.97;;;2.78;;
69716;SDS011;65362;46.144;19.666;2022-12-10T08:53:36;3.03;;;2.72;;
69716;SDS011;65362;46.144;19.666;2022-12-10T08:56:03;3.30;;;2.78;;
69716;SDS011;65362;46.144;19.666;2022-12-10T08:58:31;3.35;;;2.70;;
69716;SDS011;65362;46.144;19.666;2022-12-10T09:00:58;3.30;;;2.90;;
69716;SDS011;65362;46.144;19.666;2022-12-10T09:03:28;3.40;;;2.90;;
69716;SDS011;65362;46.144;19.666;2022-12-10T09:05:56;4.30;;;2.83;;
69716;SDS011;65362;46.144;19.666;2022-12-10T09:08:23;3.45;;;2.65;;
69716;SDS011;65362;46.144;19.666;2022-12-10T09:10:51;3.78;;;2.55;;
69716;SDS011;65362;46.144;19.666;2022-12-10T09:13:18;3.28;;;2.70;;
69716;SDS011;65362;46.144;19.666;2022-12-10T09:15:49;2.97;;;2.67;;
69716;SDS011;65362;46.144;19.666;2022-12-10T09:18:18;3.20;;;2.90;;
69716;SDS011;65362;46.144;19.666;2022-12-10T09:20:46;2.90;;;2.50;;
69716;SDS011;65362;46.144;19.666;2022-12-10T09:23:14;3.35;;;2.83;;
69716;SDS011;65362;46.144;19.666;2022-12-10T09:25:42;3.38;;;2.92;;
69716;SDS011;65362;46.144;19.666;2022-12-10T09:28:09;2.55;;;2.33;;
69716;SDS011;65362;46.144;19.666;2022-12-10T09:30:37;2.90;;;2.60;;
69716;SDS011;65362;46.144;19.666;2022-12-10T09:33:04;3.38;;;2.83;;
69716;SDS011;65362;46.144;19.666;2022-12-10T09:35:32;3.33;;;2.70;;
69716;SDS011;65362;46.144;19.666;2022-12-10T09:38:00;3.20;;;2.88;;
69716;SDS011;65362;46.144;19.666;2022-12-10T09:46:00;3.22;;;2.60;;
69716;SDS011;65362;46.144;19.666;2022-12-10T09:51:31;3.42;;;3.00;;
69716;SDS011;65362;46.144;19.666;2022-12-10T09:54:04;3.33;;;2.70;;
69716;SDS011;65362;46.144;19.666;2022-12-10T09:56:43;3.63;;;2.90;;
69716;SDS011;65362;46.144;19.666;2022-12-10T09:59:20;2.47;;;2.15;;
69716;SDS011;65362;46.144;19.666;2022-12-10T10:01:59;3.28;;;2.65;;
69716;SDS011;65362;46.144;19.666;2022-12-10T10:04:50;2.78;;;2.58;;
69716;SDS011;65362;46.144;19.666;2022-12-10T10:07:24;3.00;;;2.63;;
69716;SDS011;65362;46.144;19.666;2022-12-10T10:09:59;2.42;;;2.22;;
69716;SDS011;65362;46.144;19.666;2022-12-10T10:12:33;2.85;;;2.42;;
69716;SDS011;65362;46.144;19.666;2022-12-10T10:15:10;3.17;;;2.55;;
69716;SDS011;65362;46.144;19.666;2022-12-10T10:17:42;2.78;;;2.53;;
69716;SDS011;65362;46.144;19.666;2022-12-10T10:20:14;2.65;;;2.42;;
69716;SDS011;65362;46.144;19.666;2022-12-10T10:22:42;3.08;;;2.60;;
69716;SDS011;65362;46.144;19.666;2022-12-10T10:25:13;3.33;;;2.78;;
69716;SDS011;65362;46.144;19.666;2022-12-10T10:27:43;3.70;;;2.70;;
69716;SDS011;65362;46.144;19.666;2022-12-10T10:30:15;3.03;;;2.70;;
69716;SDS011;65362;46.144;19.666;2022-12-10T10:32:46;4.10;;;2.75;;
69716;SDS011;65362;46.144;19.666;2022-12-10T10:37:56;3.28;;;2.70;;
69716;SDS011;65362;46.144;19.666;2022-12-10T10:40:27;2.65;;;2.45;;
69716;SDS011;65362;46.144;19.666;2022-12-10T10:42:57;2.97;;;2.67;;
69716;SDS011;65362;46.144;19.666;2022-12-10T10:48:08;3.15;;;2.65;;
69716;SDS011;65362;46.144;19.666;2022-12-10T10:50:55;2.72;;;2.42;;
69716;SDS011;65362;46.144;19.666;2022-12-10T10:56:15;3.38;;;2.70;;
69716;SDS011;65362;46.144;19.666;2022-12-10T10:58:49;2.78;;;2.58;;
69716;SDS011;65362;46.144;19.666;2022-12-10T11:01:18;2.92;;;2.45;;
69716;SDS011;65362;46.144;19.666;2022-12-10T11:03:47;3.10;;;2.80;;
69716;SDS011;65362;46.144;19.666;2022-12-10T11:06:17;3.00;;;2.70;;
69716;SDS011;65362;46.144;19.666;2022-12-10T11:08:45;2.80;;;2.60;;
69716;SDS011;65362;46.144;19.666;2022-12-10T11:11:19;2.80;;;2.58;;
69716;SDS011;65362;46.144;19.666;2022-12-10T11:13:49;2.92;;;2.63;;
69716;SDS011;65362;46.144;19.666;2022-12-10T11:16:23;2.60;;;2.40;;
69716;SDS011;65362;46.144;19.666;2022-12-10T11:21:20;3.03;;;2.60;;
69716;SDS011;65362;46.144;19.666;2022-12-10T11:23:52;2.80;;;2.53;;
69716;SDS011;65362;46.144;19.666;2022-12-10T11:32:08;2.67;;;2.40;;
69716;SDS011;65362;46.144;19.666;2022-12-10T11:40:38;2.78;;;2.50;;
69716;SDS011;65362;46.144;19.666;2022-12-10T12:01:13;2.83;;;2.28;;
69716;SDS011;65362;46.144;19.666;2022-12-10T12:09:15;2.78;;;2.47;;
69716;SDS011;65362;46.144;19.666;2022-12-10T12:14:51;2.50;;;2.30;;
69716;SDS011;65362;46.144;19.666;2022-12-10T12:19:59;2.30;;;2.10;;
69716;SDS011;65362;46.144;19.666;2022-12-10T12:22:34;2.50;;;2.30;;
69716;SDS011;65362;46.144;19.666;2022-12-10T12:25:15;2.60;;;2.40;;
69716;SDS011;65362;46.144;19.666;2022-12-10T12:27:57;3.05;;;2.35;;
69716;SDS011;65362;46.144;19.666;2022-12-10T12:30:32;2.55;;;2.35;;
69716;SDS011;65362;46.144;19.666;2022-12-10T12:36:04;2.95;;;2.47;;
69716;SDS011;65362;46.144;19.666;2022-12-10T12:38:46;2.58;;;2.38;;
69716;SDS011;65362;46.144;19.666;2022-12-10T12:41:36;2.70;;;2.50;;
69716;SDS011;65362;46.144;19.666;2022-12-10T12:47:39;2.97;;;2.60;;
69716;SDS011;65362;46.144;19.666;2022-12-10T12:50:00;2.22;;;2.03;;
69716;SDS011;65362;46.144;19.666;2022-12-10T12:52:46;2.47;;;2.10;;
69716;SDS011;65362;46.144;19.666;2022-12-10T12:55:39;3.25;;;2.67;;
69716;SDS011;65362;46.144;19.666;2022-12-10T12:58:41;2.60;;;2.25;;
69716;SDS011;65362;46.144;19.666;2022-12-10T13:01:26;2.55;;;2.30;;
69716;SDS011;65362;46.144;19.666;2022-12-10T13:04:01;2.60;;;2.30;;
69716;SDS011;65362;46.144;19.666;2022-12-10T13:06:31;2.95;;;2.50;;
69716;SDS011;65362;46.144;19.666;2022-12-10T13:11:41;2.60;;;2.40;;
69716;SDS011;65362;46.144;19.666;2022-12-10T13:14:15;2.50;;;2.30;;
69716;SDS011;65362;46.144;19.666;2022-12-10T13:17:08;2.78;;;2.40;;
69716;SDS011;65362;46.144;19.666;2022-12-10T13:19:50;2.58;;;2.38;;
69716;SDS011;65362;46.144;19.666;2022-12-10T13:25:12;2.60;;;2.40;;
69716;SDS011;65362;46.144;19.666;2022-12-10T13:27:54;2.45;;;2.15;;
69716;SDS011;65362;46.144;19.666;2022-12-10T13:30:26;2.63;;;2.30;;
69716;SDS011;65362;46.144;19.666;2022-12-10T13:33:02;2.40;;;2.20;;
69716;SDS011;65362;46.144;19.666;2022-12-10T13:35:57;2.47;;;2.28;;
69716;SDS011;65362;46.144;19.666;2022-12-10T13:38:39;2.97;;;2.17;;
69716;SDS011;65362;46.144;19.666;2022-12-10T13:41:08;2.33;;;2.00;;
69716;SDS011;65362;46.144;19.666;2022-12-10T13:43:58;2.30;;;2.10;;
69716;SDS011;65362;46.144;19.666;2022-12-10T13:49:22;2.85;;;2.50;;
69716;SDS011;65362;46.144;19.666;2022-12-10T13:51:55;3.08;;;2.40;;
69716;SDS011;65362;46.144;19.666;2022-12-10T13:54:37;2.38;;;2.17;;
69716;SDS011;65362;46.144;19.666;2022-12-10T13:57:14;2.30;;;2.10;;
69716;SDS011;65362;46.144;19.666;2022-12-10T14:08:13;3.42;;;2.25;;
69716;SDS011;65362;46.144;19.666;2022-12-10T14:10:45;2.30;;;2.10;;
69716;SDS011;65362;46.144;19.666;2022-12-10T14:13:15;2.35;;;2.15;;
69716;SDS011;65362;46.144;19.666;2022-12-10T14:15:53;2.03;;;1.90;;
69716;SDS011;65362;46.144;19.666;2022-12-10T14:18:22;2.17;;;1.98;;
69716;SDS011;65362;46.144;19.666;2022-12-10T14:20:52;2.17;;;1.98;;
69716;SDS011;65362;46.144;19.666;2022-12-10T14:23:27;2.00;;;1.90;;
69716;SDS011;65362;46.144;19.666;2022-12-10T14:28:47;2.03;;;1.90;;
69716;SDS011;65362;46.144;19.666;2022-12-10T14:31:32;2.15;;;1.95;;
69716;SDS011;65362;46.144;19.666;2022-12-10T14:34:11;2.53;;;2.30;;
69716;SDS011;65362;46.144;19.666;2022-12-10T14:36:46;2.75;;;2.00;;
69716;SDS011;65362;46.144;19.666;2022-12-10T14:39:19;2.20;;;2.00;;
69716;SDS011;65362;46.144;19.666;2022-12-10T14:41:50;2.25;;;1.80;;
69716;SDS011;65362;46.144;19.666;2022-12-10T14:44:20;2.40;;;2.20;;
69716;SDS011;65362;46.144;19.666;2022-12-10T14:46:49;2.25;;;2.05;;
69716;SDS011;65362;46.144;19.666;2022-12-10T14:49:24;2.13;;;1.90;;
69716;SDS011;65362;46.144;19.666;2022-12-10T14:51:55;2.33;;;2.13;;
69716;SDS011;65362;46.144;19.666;2022-12-10T14:54:27;2.45;;;1.90;;
69716;SDS011;65362;46.144;19.666;2022-12-10T14:56:59;2.25;;;2.05;;
69716;SDS011;65362;46.144;19.666;2022-12-10T15:02:29;2.10;;;1.90;;
69716;SDS011;65362;46.144;19.666;2022-12-10T15:05:02;2.20;;;2.00;;
69716;SDS011;65362;46.144;19.666;2022-12-10T15:07:31;2.28;;;1.95;;
69716;SDS011;65362;46.144;19.666;2022-12-10T15:10:10;2.30;;;1.90;;
69716;SDS011;65362;46.144;19.666;2022-12-10T15:12:45;2.03;;;1.88;;
69716;SDS011;65362;46.144;19.666;2022-12-10T15:17:57;2.13;;;1.92;;
69716;SDS011;65362;46.144;19.666;2022-12-10T15:20:52;2.00;;;1.90;;
69716;SDS011;65362;46.144;19.666;2022-12-10T15:28:28;2.20;;;2.00;;
69716;SDS011;65362;46.144;19.666;2022-12-10T15:33:56;2.45;;;2.10;;
69716;SDS011;65362;46.144;19.666;2022-12-10T15:44:45;2.10;;;1.90;;
69716;SDS011;65362;46.144;19.666;2022-12-10T15:47:14;2.00;;;1.80;;
69716;SDS011;65362;46.144;19.666;2022-12-10T15:49:48;1.95;;;1.80;;
69716;SDS011;65362;46.144;19.666;2022-12-10T15:52:25;2.00;;;1.80;;
69716;SDS011;65362;46.144;19.666;2022-12-10T15:54:54;2.25;;;2.05;;
69716;SDS011;65362;46.144;19.666;2022-12-10T15:57:30;2.20;;;2.00;;
69716;SDS011;65362;46.144;19.666;2022-12-10T16:00:00;2.10;;;1.90;;
69716;SDS011;65362;46.144;19.666;2022-12-10T16:02:40;1.85;;;1.70;;
69716;SDS011;65362;46.144;19.666;2022-12-10T16:07:38;2.60;;;2.10;;
69716;SDS011;65362;46.144;19.666;2022-12-10T16:10:06;2.00;;;1.80;;
69716;SDS011;65362;46.144;19.666;2022-12-10T16:12:36;1.98;;;1.77;;
69716;SDS011;65362;46.144;19.666;2022-12-10T16:15:07;1.90;;;1.80;;
69716;SDS011;65362;46.144;19.666;2022-12-10T16:17:41;1.80;;;1.70;;
69716;SDS011;65362;46.144;19.666;2022-12-10T16:22:46;2.35;;;2.00;;
69716;SDS011;65362;46.144;19.666;2022-12-10T16:25:14;1.95;;;1.80;;
69716;SDS011;65362;46.144;19.666;2022-12-10T16:27:42;1.75;;;1.65;;
69716;SDS011;65362;46.144;19.666;2022-12-10T16:30:18;1.73;;;1.60;;
69716;SDS011;65362;46.144;19.666;2022-12-10T16:33:18;1.90;;;1.60;;
69716;SDS011;65362;46.144;19.666;2022-12-10T16:35:48;2.25;;;1.90;;
69716;SDS011;65362;46.144;19.666;2022-12-10T16:38:17;1.80;;;1.70;;
69716;SDS011;65362;46.144;19.666;2022-12-10T16:40:45;1.80;;;1.70;;
69716;SDS011;65362;46.144;19.666;2022-12-10T16:43:17;2.10;;;1.90;;
69716;SDS011;65362;46.144;19.666;2022-12-10T16:45:47;2.10;;;1.90;;
69716;SDS011;65362;46.144;19.666;2022-12-10T16:48:15;1.80;;;1.70;;
69716;SDS011;65362;46.144;19.666;2022-12-10T16:50:43;1.77;;;1.67;;
69716;SDS011;65362;46.144;19.666;2022-12-10T16:53:16;1.92;;;1.73;;
69716;SDS011;65362;46.144;19.666;2022-12-10T16:55:55;1.90;;;1.80;;
69716;SDS011;65362;46.144;19.666;2022-12-10T16:58:23;2.85;;;1.88;;
69716;SDS011;65362;46.144;19.666;2022-12-10T17:00:52;1.73;;;1.63;;
69716;SDS011;65362;46.144;19.666;2022-12-10T17:03:24;1.98;;;1.75;;
69716;SDS011;65362;46.144;19.666;2022-12-10T17:05:56;2.03;;;1.80;;
69716;SDS011;65362;46.144;19.666;2022-12-10T17:08:26;1.60;;;1.50;;
69716;SDS011;65362;46.144;19.666;2022-12-10T17:10:56;1.83;;;1.73;;
69716;SDS011;65362;46.144;19.666;2022-12-10T17:16:18;1.70;;;1.60;;
69716;SDS011;65362;46.144;19.666;2022-12-10T17:18:49;1.80;;;1.67;;